Time;durP1;ratioP1;P1;durP2;ratioP2;P2;SDS_P1;SDS_P2;PMS_P1;PMS_P2;Temp;Humidity;BMP_temperature;BMP_pressure;BME280_temperature;BME280_humidity;BME280_pressure;Samples;Min_cycle;Max_cycle;Signal;HPM_P1;HPM_P2
2023/06/04 00:00:38;;;;;;;1999.90;999.90;;;17.30;99.90;;;;;;5015855;28;20038;-79
2023/06/04 00:03:03;;;;;;;1999.90;999.90;;;17.30;99.90;;;;;;5024659;28;20021;-79
2023/06/04 00:05:29;;;;;;;1999.90;999.90;;;17.20;99.90;;;;;;5035200;28;20370;-79
2023/06/04 00:07:55;;;;;;;1999.90;999.90;;;17.20;99.90;;;;;;5017861;28;20049;-79
2023/06/04 00:10:20;;;;;;;1999.90;999.90;;;17.10;99.90;;;;;;5035525;28;20024;-78
2023/06/04 00:12:46;;;;;;;1999.90;999.90;;;17.20;99.90;;;;;;5036350;28;20072;-79
2023/06/04 00:15:14;;;;;;;1999.90;999.90;;;17.30;99.90;;;;;;5035268;28;20029;-79
2023/06/04 00:17:40;;;;;;;1999.90;999.90;;;17.30;99.90;;;;;;5035227;28;20017;-79
2023/06/04 00:20:06;;;;;;;1999.90;999.90;;;17.30;99.90;;;;;;5035364;28;20032;-79
2023/06/04 00:22:32;;;;;;;1999.90;999.90;;;17.30;99.90;;;;;;5035467;28;20541;-79
2023/06/04 00:24:57;;;;;;;1999.90;999.90;;;17.30;99.90;;;;;;5016334;28;20025;-79
2023/06/04 00:27:23;;;;;;;1999.90;999.90;;;17.30;99.90;;;;;;5035156;28;20108;-79
2023/06/04 00:29:48;;;;;;;1999.90;999.90;;;17.20;99.90;;;;;;5034951;28;20029;-78
2023/06/04 00:32:14;;;;;;;1999.90;999.90;;;17.20;99.90;;;;;;5035049;28;20433;-79
2023/06/04 00:34:40;;;;;;;1999.90;999.90;;;17.20;99.90;;;;;;5034980;28;20131;-79
2023/06/04 00:37:05;;;;;;;1999.90;999.90;;;17.20;99.90;;;;;;5035400;28;20056;-78
2023/06/04 00:39:32;;;;;;;1999.90;999.90;;;17.20;99.90;;;;;;5034253;28;20401;-78
2023/06/04 00:41:57;;;;;;;1999.90;999.90;;;17.20;99.90;;;;;;5034375;28;20025;-79
2023/06/04 00:44:25;;;;;;;1999.90;999.90;;;17.10;99.90;;;;;;5035026;28;20113;-79
2023/06/04 00:46:51;;;;;;;1999.90;999.90;;;17.10;99.90;;;;;;5033805;28;20029;-79
2023/06/04 00:49:16;;;;;;;1999.90;999.90;;;17.00;99.90;;;;;;5034813;28;20370;-79
2023/06/04 00:51:42;;;;;;;1999.90;999.90;;;17.00;99.90;;;;;;5035016;28;20025;-79
2023/06/04 00:54:11;;;;;;;1999.90;999.90;;;17.00;99.90;;;;;;5034665;28;20025;-79
2023/06/04 00:56:40;;;;;;;1999.90;999.90;;;17.00;99.90;;;;;;5034722;28;20021;-79
2023/06/04 00:59:07;;;;;;;1999.90;999.90;;;16.90;99.90;;;;;;5016769;28;20044;-79
2023/06/04 01:01:54;;;;;;;1999.90;999.90;;;16.90;99.90;;;;;;5034357;28;20029;-79
2023/06/04 01:04:50;;;;;;;1999.90;999.90;;;16.90;99.90;;;;;;5034154;28;20100;-78
2023/06/04 01:07:16;;;;;;;1999.90;999.90;;;16.80;99.90;;;;;;5015449;28;20053;-78
2023/06/04 01:09:44;;;;;;;1999.90;999.90;;;16.90;99.90;;;;;;5027600;28;20025;-78
2023/06/04 01:12:10;;;;;;;1999.90;999.90;;;16.80;99.90;;;;;;5034461;28;20029;-79
2023/06/04 01:14:36;;;;;;;1999.90;999.90;;;16.80;99.90;;;;;;5016495;28;20026;-79
2023/06/04 01:17:09;;;;;;;1999.90;999.90;;;16.80;99.90;;;;;;5034384;28;20113;-78
2023/06/04 01:20:01;;;;;;;1999.90;999.90;;;16.80;99.90;;;;;;5034087;28;20026;-79
2023/06/04 01:22:31;;;;;;;1999.90;999.90;;;16.70;99.90;;;;;;5034990;28;20031;-78
2023/06/04 01:25:03;;;;;;;1999.90;999.90;;;16.70;99.90;;;;;;5034026;28;20060;-78
2023/06/04 01:27:29;;;;;;;1999.90;999.90;;;16.60;99.90;;;;;;5015618;28;20121;-78
2023/06/04 01:29:56;;;;;;;1999.90;999.90;;;16.70;99.90;;;;;;5033861;28;20033;-78
2023/06/04 01:32:23;;;;;;;1999.90;999.90;;;16.70;99.90;;;;;;5033975;28;20022;-78
2023/06/04 01:34:49;;;;;;;1999.90;999.90;;;16.60;99.90;;;;;;5033601;28;20022;-79
2023/06/04 01:37:16;;;;;;;1999.90;999.90;;;16.70;99.90;;;;;;5033663;28;20389;-79
2023/06/04 01:39:42;;;;;;;1999.90;999.90;;;16.60;99.90;;;;;;5033925;28;20029;-78
2023/06/04 01:42:10;;;;;;;1999.90;999.90;;;16.50;99.90;;;;;;5033760;28;20532;-78
2023/06/04 01:44:36;;;;;;;1999.90;999.90;;;16.50;99.90;;;;;;5033414;28;20037;-78
2023/06/04 01:47:02;;;;;;;1999.90;999.90;;;16.50;99.90;;;;;;5032530;28;20104;-79
2023/06/04 01:49:28;;;;;;;1999.90;999.90;;;16.50;99.90;;;;;;5033745;28;20460;-79
2023/06/04 01:51:53;;;;;;;1999.90;999.90;;;16.50;99.90;;;;;;5033255;28;20026;-78
2023/06/04 01:54:19;;;;;;;1999.90;999.90;;;16.40;99.90;;;;;;5033835;28;20096;-78
2023/06/04 01:56:46;;;;;;;1999.90;999.90;;;16.40;99.90;;;;;;5033522;28;20032;-79
2023/06/04 01:59:11;;;;;;;1999.90;999.90;;;16.50;99.90;;;;;;5015550;28;20047;-79
2023/06/04 02:01:38;;;;;;;1999.90;999.90;;;16.40;99.90;;;;;;5033170;28;20032;-78
2023/06/04 02:04:03;;;;;;;1999.90;999.90;;;16.40;99.90;;;;;;5033118;28;20472;-78
2023/06/04 02:06:29;;;;;;;1999.90;999.90;;;16.40;99.90;;;;;;5033122;28;20048;-78
2023/06/04 02:08:56;;;;;;;1999.90;999.90;;;16.40;99.90;;;;;;5033160;28;20065;-79
2023/06/04 02:11:21;;;;;;;1999.90;999.90;;;16.40;99.90;;;;;;5015513;28;20488;-79
2023/06/04 02:13:47;;;;;;;1999.90;999.90;;;16.30;99.90;;;;;;5033387;28;20022;-78
2023/06/04 02:16:13;;;;;;;1999.90;999.90;;;16.30;99.90;;;;;;5033149;28;20037;-78
2023/06/04 02:18:39;;;;;;;1999.90;999.90;;;16.30;99.90;;;;;;5033156;28;20036;-78
2023/06/04 02:21:05;;;;;;;1999.90;999.90;;;16.30;99.90;;;;;;5033089;28;20029;-79
2023/06/04 02:23:30;;;;;;;1999.90;999.90;;;16.20;99.90;;;;;;5033111;28;20501;-78
2023/06/04 02:25:56;;;;;;;1999.90;999.90;;;16.20;99.90;;;;;;5033018;28;20499;-78
2023/06/04 02:28:22;;;;;;;1999.90;999.90;;;16.10;99.90;;;;;;5033087;28;20031;-79
2023/06/04 02:30:47;;;;;;;1999.90;999.90;;;16.10;99.90;;;;;;5032878;28;20107;-78
2023/06/04 02:33:14;;;;;;;1999.90;999.90;;;16.10;99.90;;;;;;5032770;28;20060;-78
2023/06/04 02:35:40;;;;;;;1999.90;999.90;;;16.10;99.90;;;;;;5032954;28;20045;-78
2023/06/04 02:38:07;;;;;;;1999.90;999.90;;;16.00;99.90;;;;;;5032909;28;20084;-79
2023/06/04 02:40:32;;;;;;;1999.90;999.90;;;16.00;99.90;;;;;;5033034;28;20060;-78
2023/06/04 02:42:58;;;;;;;1999.90;999.90;;;15.90;99.90;;;;;;5032952;28;20500;-78
2023/06/04 02:45:24;;;;;;;1999.90;999.90;;;15.90;99.90;;;;;;5032802;28;20120;-79
2023/06/04 02:47:49;;;;;;;1999.90;999.90;;;15.80;99.90;;;;;;5032066;28;20022;-78
2023/06/04 02:50:15;;;;;;;1999.90;999.90;;;15.80;99.90;;;;;;5033195;28;20064;-78
2023/06/04 02:52:42;;;;;;;1999.90;999.90;;;15.80;99.90;;;;;;5015203;28;20075;-78
2023/06/04 02:55:08;;;;;;;1999.90;999.90;;;15.80;99.90;;;;;;5032878;28;20033;-78
2023/06/04 02:57:34;;;;;;;1999.90;999.90;;;15.80;99.90;;;;;;5032747;28;20026;-78
2023/06/04 03:00:01;;;;;;;1999.90;999.90;;;15.80;99.90;;;;;;5032539;28;20041;-78
2023/06/04 03:02:27;;;;;;;1999.90;999.90;;;15.80;99.90;;;;;;5032634;28;20018;-79
2023/06/04 03:04:54;;;;;;;1999.90;999.90;;;15.80;99.90;;;;;;5036150;28;20041;-78
2023/06/04 03:07:22;;;;;;;1999.90;999.90;;;15.70;99.90;;;;;;5015415;28;20500;-78
2023/06/04 03:09:49;;;;;;;1999.90;999.90;;;15.70;99.90;;;;;;5031068;28;20481;-78
2023/06/04 03:12:15;;;;;;;1999.90;999.90;;;15.70;99.90;;;;;;5036655;28;20017;-78
2023/06/04 03:14:40;;;;;;;1999.90;999.90;;;15.70;99.90;;;;;;5036742;28;20040;-78
2023/06/04 03:17:10;;;;;;;1999.90;999.90;;;15.70;99.90;;;;;;5036855;28;20107;-79
2023/06/04 03:19:40;;;;;;;1999.90;999.90;;;15.70;99.90;;;;;;5018732;28;20029;-78
2023/06/04 03:22:06;;;;;;;1999.90;999.90;;;15.70;99.90;;;;;;5036329;28;20496;-78
2023/06/04 03:24:38;;;;;;;1999.90;999.90;;;15.70;99.90;;;;;;5018438;28;20431;-78
2023/06/04 03:27:05;;;;;;;1999.90;999.90;;;15.70;99.90;;;;;;5018513;28;20026;-78
2023/06/04 03:29:34;;;;;;;1999.90;999.90;;;15.70;99.90;;;;;;5036210;28;20497;-78
2023/06/04 03:32:00;;;;;;;1999.90;999.90;;;15.70;99.90;;;;;;5036243;28;20021;-78
2023/06/04 03:34:27;;;;;;;1999.90;999.90;;;15.60;99.90;;;;;;5036169;28;20072;-79
2023/06/04 03:36:53;;;;;;;1999.90;999.90;;;15.60;99.90;;;;;;5036112;28;20504;-78
2023/06/04 03:39:20;;;;;;;1999.90;999.90;;;15.50;99.90;;;;;;5035986;28;20515;-78
2023/06/04 03:41:45;;;;;;;1999.90;999.90;;;15.40;99.90;;;;;;5036409;28;20540;-78
2023/06/04 03:44:15;;;;;;;1999.90;999.90;;;15.40;99.90;;;;;;5036110;28;20116;-79
2023/06/04 03:46:42;;;;;;;1999.90;999.90;;;15.40;99.90;;;;;;5035812;28;20124;-78
2023/06/04 03:49:10;;;;;;;1999.90;999.90;;;15.40;99.90;;;;;;5016940;28;20033;-78
2023/06/04 03:51:36;;;;;;;1999.90;999.90;;;15.40;99.90;;;;;;5018156;28;20032;-78
2023/06/04 03:54:02;;;;;;;1999.90;999.90;;;15.40;99.90;;;;;;5035617;28;20029;-78
2023/06/04 03:56:28;;;;;;;1999.90;999.90;;;15.40;99.90;;;;;;5036068;28;20017;-78
2023/06/04 03:58:54;;;;;;;1999.90;999.90;;;15.50;99.90;;;;;;5035418;28;20443;-78
2023/06/04 04:01:20;;;;;;;1999.90;999.90;;;15.40;99.90;;;;;;5035506;28;20034;-78
2023/06/04 04:03:48;;;;;;;1999.90;999.90;;;15.50;99.90;;;;;;5035387;28;20059;-78
2023/06/04 04:06:14;;;;;;;1999.90;999.90;;;15.50;99.90;;;;;;5035276;28;20025;-78
2023/06/04 04:08:42;;;;;;;1999.90;999.90;;;15.50;99.90;;;;;;5035420;28;20018;-79
2023/06/04 04:11:08;;;;;;;1999.90;999.90;;;15.60;99.90;;;;;;5017663;28;20492;-77
2023/06/04 04:13:34;;;;;;;1999.90;999.90;;;15.60;99.90;;;;;;5035378;28;20045;-78
2023/06/04 04:16:00;;;;;;;1999.90;999.90;;;15.70;99.90;;;;;;5035239;28;20036;-78
2023/06/04 04:18:26;;;;;;;1999.90;999.90;;;15.70;99.90;;;;;;5017385;28;20033;-79
2023/06/04 04:20:51;;;;;;;1999.90;999.90;;;15.80;99.90;;;;;;5034386;28;20036;-78
2023/06/04 04:23:17;;;;;;;1999.90;999.90;;;15.80;99.90;;;;;;5035305;28;20030;-78
2023/06/04 04:25:47;;;;;;;1999.90;999.90;;;15.80;99.90;;;;;;5035111;28;20104;-78
2023/06/04 04:28:12;;;;;;;1999.90;999.90;;;15.80;99.90;;;;;;5035487;28;20021;-78
2023/06/04 04:30:39;;;;;;;1999.90;999.90;;;15.80;99.90;;;;;;5035291;28;20034;-78
2023/06/04 04:33:07;;;;;;;1999.90;999.90;;;15.70;99.90;;;;;;5035403;28;20027;-78
2023/06/04 04:35:34;;;;;;;1999.90;999.90;;;15.80;99.90;;;;;;5034693;28;20049;-78
2023/06/04 04:38:03;;;;;;;1999.90;999.90;;;15.70;99.90;;;;;;5034594;28;20048;-78
2023/06/04 04:40:29;;;;;;;1999.90;999.90;;;15.70;99.90;;;;;;5035136;28;20112;-78
2023/06/04 04:42:55;;;;;;;1999.90;999.90;;;15.70;99.90;;;;;;5017086;28;20030;-78
2023/06/04 04:45:20;;;;;;;1999.90;999.90;;;15.80;99.90;;;;;;5034789;28;20044;-78
2023/06/04 04:47:47;;;;;;;1999.90;999.90;;;15.80;99.90;;;;;;5035005;28;20026;-78
2023/06/04 04:50:13;;;;;;;1999.90;999.90;;;15.80;99.90;;;;;;5033777;28;20032;-78
2023/06/04 04:52:38;;;;;;;1999.90;999.90;;;15.70;99.90;;;;;;5035042;28;20027;-78
2023/06/04 04:55:04;;;;;;;1999.90;999.90;;;15.70;99.90;;;;;;5016908;28;20026;-78
2023/06/04 04:57:30;;;;;;;1999.90;999.90;;;15.60;99.90;;;;;;5034620;28;20025;-78
2023/06/04 04:59:56;;;;;;;1999.90;999.90;;;15.70;99.90;;;;;;5034578;28;20464;-79
2023/06/04 05:02:21;;;;;;;1999.90;999.90;;;15.60;99.90;;;;;;5016497;28;20041;-79
2023/06/04 05:04:47;;;;;;;1999.90;999.90;;;15.60;99.90;;;;;;5034455;28;20060;-78
2023/06/04 05:07:13;;;;;;;1999.90;999.90;;;15.70;99.90;;;;;;5034323;28;20480;-78
2023/06/04 05:09:40;;;;;;;1999.90;999.90;;;15.70;99.90;;;;;;5034553;28;20071;-78
2023/06/04 05:12:06;;;;;;;1999.90;999.90;;;15.70;99.90;;;;;;5034542;28;20025;-78
2023/06/04 05:14:35;;;;;;;1999.90;999.90;;;15.70;99.90;;;;;;5034157;28;20024;-79
2023/06/04 05:17:00;;;;;;;1999.90;999.90;;;15.70;99.90;;;;;;5034086;28;20574;-78
2023/06/04 05:19:26;;;;;;;1999.90;999.90;;;15.80;99.90;;;;;;5034285;28;20026;-78
2023/06/04 05:21:52;;;;;;;1999.90;999.90;;;15.80;99.90;;;;;;5034498;28;20029;-78
2023/06/04 05:24:17;;;;;;;1999.90;999.90;;;15.80;99.90;;;;;;5034159;28;20017;-78
2023/06/04 05:26:43;;;;;;;1999.90;999.90;;;15.90;99.90;;;;;;5033537;28;20022;-78
2023/06/04 05:29:08;;;;;;;1999.90;999.90;;;16.00;99.90;;;;;;5034154;28;20105;-79
2023/06/04 05:31:34;;;;;;;1999.90;999.90;;;16.00;99.90;;;;;;5016148;28;20083;-79
2023/06/04 05:34:07;;;;;;;1999.90;999.90;;;16.10;99.90;;;;;;5015993;28;20028;-78
2023/06/04 05:36:32;;;;;;;1999.90;999.90;;;16.20;99.90;;;;;;5033639;28;20524;-79
2023/06/04 05:38:59;;;;;;;1999.90;999.90;;;16.30;99.90;;;;;;5033824;28;20057;-78
2023/06/04 05:41:28;;;;;;;1999.90;999.90;;;16.40;99.90;;;;;;5033892;28;20400;-78
2023/06/04 05:43:53;;;;;;;1999.90;999.90;;;16.50;99.90;;;;;;5033973;28;20017;-78
2023/06/04 05:46:19;;;;;;;1999.90;999.90;;;16.60;99.90;;;;;;5033775;28;20030;-78
2023/06/04 05:48:45;;;;;;;1999.90;999.90;;;16.70;99.90;;;;;;5033741;28;20026;-79
2023/06/04 05:51:13;;;;;;;1999.90;999.90;;;16.80;99.90;;;;;;5033023;28;20404;-78
2023/06/04 05:53:39;;;;;;;1999.90;999.90;;;16.80;99.90;;;;;;5033574;28;20037;-78
2023/06/04 05:56:05;;;;;;;1999.90;999.90;;;16.90;99.90;;;;;;5033461;28;20029;-78
2023/06/04 05:58:33;;;;;;;1999.90;999.90;;;17.00;99.90;;;;;;5033673;28;20072;-78
2023/06/04 06:00:58;;;;;;;1999.90;999.90;;;17.00;99.90;;;;;;5033592;28;20048;-78
2023/06/04 06:03:24;;;;;;;1999.90;999.90;;;17.10;99.90;;;;;;5015389;28;20025;-78
2023/06/04 06:05:49;;;;;;;1999.90;999.90;;;17.20;99.90;;;;;;5032954;28;20021;-78
2023/06/04 06:08:15;;;;;;;1999.90;999.90;;;17.40;99.90;;;;;;5033406;28;20018;-78
2023/06/04 06:10:41;;;;;;;1999.90;999.90;;;17.40;99.90;;;;;;5033273;28;20029;-78
2023/06/04 06:13:06;;;;;;;1999.90;999.90;;;17.50;99.90;;;;;;5033282;28;20049;-78
2023/06/04 06:15:32;;;;;;;1999.90;999.90;;;17.60;99.90;;;;;;5033140;28;20485;-78
2023/06/04 06:17:58;;;;;;;1999.90;999.90;;;17.80;99.90;;;;;;5033399;28;20449;-78
2023/06/04 06:20:24;;;;;;;1999.90;999.90;;;17.80;99.90;;;;;;5033050;28;20033;-78
2023/06/04 06:22:50;;;;;;;1999.90;999.90;;;17.90;99.90;;;;;;5033308;28;20181;-78
2023/06/04 06:25:15;;;;;;;1999.90;999.90;;;18.00;99.90;;;;;;5033187;28;20029;-78
2023/06/04 06:27:41;;;;;;;1999.90;999.90;;;18.10;99.90;;;;;;5033072;28;20033;-78
2023/06/04 06:30:08;;;;;;;1999.90;999.90;;;18.20;99.90;;;;;;5033107;28;20036;-78
2023/06/04 06:32:35;;;;;;;1999.90;999.90;;;18.30;99.90;;;;;;5032922;28;20476;-78
2023/06/04 06:35:01;;;;;;;1999.90;999.90;;;18.40;99.90;;;;;;5032784;28;20033;-79
2023/06/04 06:37:27;;;;;;;1999.90;999.90;;;18.50;99.90;;;;;;5032703;28;20400;-78
2023/06/04 06:39:52;;;;;;;1999.90;999.90;;;18.70;99.90;;;;;;5032503;28;20026;-78
2023/06/04 06:42:19;;;;;;;1999.90;999.90;;;18.80;99.90;;;;;;5033260;28;20037;-78
2023/06/04 06:44:45;;;;;;;1999.90;999.90;;;19.00;99.90;;;;;;5032697;28;20018;-78
2023/06/04 06:47:13;;;;;;;1999.90;999.90;;;19.10;99.90;;;;;;5032692;28;20056;-78
2023/06/04 06:49:39;;;;;;;1999.90;999.90;;;19.10;99.90;;;;;;5014850;28;20436;-78
2023/06/04 06:52:05;;;;;;;1999.90;999.90;;;19.10;99.90;;;;;;5031753;28;20026;-78
2023/06/04 06:54:31;;;;;;;1999.90;999.90;;;19.10;99.90;;;;;;5033030;28;20029;-78
2023/06/04 06:56:57;;;;;;;1999.90;999.90;;;19.20;99.90;;;;;;5032846;28;20030;-78
2023/06/04 06:59:23;;;;;;;1999.90;999.90;;;19.30;99.90;;;;;;5032694;28;20021;-78
2023/06/04 07:01:49;;;;;;;1999.90;999.90;;;19.40;99.90;;;;;;5032574;28;20503;-78
2023/06/04 07:04:14;;;;;;;1999.90;999.90;;;19.60;99.90;;;;;;5032447;28;20106;-78
2023/06/04 07:06:40;;;;;;;1999.90;999.90;;;19.80;99.90;;;;;;5032254;28;20123;-78
2023/06/04 07:09:05;;;;;;;1999.90;999.90;;;19.80;99.90;;;;;;5032490;28;20456;-78
2023/06/04 07:11:31;;;;;;;1999.90;999.90;;;19.90;99.90;;;;;;5032513;28;20053;-78
2023/06/04 07:13:57;;;;;;;1999.90;999.90;;;20.00;99.90;;;;;;5032748;28;20021;-78
2023/06/04 07:16:23;;;;;;;1999.90;999.90;;;20.20;99.90;;;;;;5032552;28;20087;-78
2023/06/04 07:18:51;;;;;;;1999.90;999.90;;;20.20;99.90;;;;;;5032548;28;20451;-78
2023/06/04 07:21:19;;;;;;;1999.90;999.90;;;20.50;99.90;;;;;;5014819;28;20029;-79
2023/06/04 07:23:47;;;;;;;1999.90;999.90;;;20.70;99.90;;;;;;5032752;28;20488;-79
2023/06/04 07:26:12;;;;;;;1999.90;999.90;;;20.90;99.90;;;;;;5031652;28;20029;-79
2023/06/04 07:28:38;;;;;;;1999.90;999.90;;;21.10;99.90;;;;;;5032532;28;20096;-79
2023/06/04 07:31:03;;;;;;;1999.90;999.90;;;21.50;99.90;;;;;;5032446;28;20100;-79
2023/06/04 07:33:29;;;;;;;1999.90;999.90;;;23.00;99.90;;;;;;5032797;28;20070;-79
2023/06/04 07:35:55;;;;;;;1999.90;999.90;;;25.00;99.90;;;;;;5032253;28;20049;-79
2023/06/04 07:38:20;;;;;;;1999.90;999.90;;;24.60;99.90;;;;;;5032213;28;20069;-79
2023/06/04 07:40:47;;;;;;;1999.90;999.90;;;24.60;99.90;;;;;;5014539;28;20064;-79
2023/06/04 07:43:13;;;;;;;1999.90;999.90;;;24.70;99.90;;;;;;5032507;28;20096;-79
2023/06/04 07:45:38;;;;;;;1999.90;999.90;;;25.60;99.90;;;;;;5014418;28;20529;-79
2023/06/04 07:48:04;;;;;;;1999.90;999.90;;;26.10;99.90;;;;;;5032170;28;20036;-79
2023/06/04 07:50:30;;;;;;;1999.90;999.90;;;26.90;99.50;;;;;;5034639;28;20044;-79
2023/06/04 07:52:56;;;;;;;1999.90;999.90;;;27.40;98.70;;;;;;5035172;28;20021;-79
2023/06/04 07:55:21;;;;;;;1999.90;999.90;;;28.30;97.60;;;;;;5035663;28;20029;-79
2023/06/04 07:57:47;;;;;;;1999.90;999.90;;;29.30;96.70;;;;;;5035931;28;20036;-79
2023/06/04 08:00:14;;;;;;;1999.90;999.90;;;29.50;96.20;;;;;;5035557;28;20033;-79
2023/06/04 08:02:40;;;;;;;1999.90;999.90;;;29.70;96.00;;;;;;5035424;28;20026;-79
2023/06/04 08:05:06;;;;;;;1999.90;999.90;;;29.80;94.40;;;;;;5035635;28;20034;-79
2023/06/04 08:07:31;;;;;;;1999.90;999.90;;;29.60;94.70;;;;;;5035483;28;20373;-79
2023/06/04 08:09:57;;;;;;;1999.90;999.90;;;30.10;94.50;;;;;;5035311;28;20476;-79
2023/06/04 08:12:23;;;;;;;1999.90;999.90;;;28.80;95.90;;;;;;5035511;28;20080;-79
2023/06/04 08:14:50;;;;;;;1999.90;999.90;;;28.60;97.20;;;;;;5035957;28;20079;-79
2023/06/04 08:17:16;;;;;;;1999.90;999.90;;;29.80;95.80;;;;;;5035697;28;20021;-79
2023/06/04 08:19:41;;;;;;;1999.90;999.90;;;30.70;94.60;;;;;;5035455;28;20064;-80
2023/06/04 08:22:09;;;;;;;1999.90;999.90;;;31.70;93.80;;;;;;5035187;28;20033;-80
2023/06/04 08:24:34;;;;;;;1999.90;999.90;;;31.90;92.60;;;;;;5035484;28;20068;-80
2023/06/04 08:27:00;;;;;;;1999.90;999.90;;;32.50;92.40;;;;;;5017455;28;20053;-80
2023/06/04 08:29:26;;;;;;;1999.90;999.90;;;32.80;91.80;;;;;;5035554;28;20064;-80
2023/06/04 08:31:51;;;;;;;1999.90;999.90;;;32.70;91.60;;;;;;5035228;28;20065;-80
2023/06/04 08:34:17;;;;;;;1999.90;999.90;;;32.40;92.20;;;;;;5034899;28;20059;-80
2023/06/04 08:36:43;;;;;;;1999.90;999.90;;;32.80;92.40;;;;;;5034812;28;20092;-80
2023/06/04 08:39:09;;;;;;;1999.90;999.90;;;32.90;91.60;;;;;;5035041;28;20487;-80
2023/06/04 08:41:43;;;;;;;1999.90;999.90;;;33.40;91.50;;;;;;5035335;28;20473;-80
2023/06/04 08:44:10;;;;;;;1999.90;999.90;;;33.90;91.60;;;;;;5035040;28;20132;-80
2023/06/04 08:46:40;;;;;;;1999.90;999.90;;;33.90;90.70;;;;;;5034241;28;20033;-80
2023/06/04 08:49:06;;;;;;;1999.90;999.90;;;34.10;90.10;;;;;;5034845;28;20049;-80
2023/06/04 08:51:37;;;;;;;1999.90;999.90;;;34.30;90.20;;;;;;5034691;28;20092;-80
2023/06/04 08:54:10;;;;;;;1999.90;999.90;;;34.20;90.40;;;;;;5033831;28;20405;-80
2023/06/04 08:56:36;;;;;;;1999.90;999.90;;;34.10;90.20;;;;;;5034681;28;20025;-80
2023/06/04 08:59:07;;;;;;;1999.90;999.90;;;34.40;90.60;;;;;;5034716;28;20495;-80
2023/06/04 09:01:34;;;;;;;1999.90;999.90;;;34.80;90.30;;;;;;5033866;28;20017;-80
2023/06/04 09:04:03;;;;;;;1999.90;999.90;;;34.70;90.00;;;;;;5034445;28;20021;-80
2023/06/04 09:06:29;;;;;;;1999.90;999.90;;;34.70;90.10;;;;;;5034017;28;20030;-80
2023/06/04 09:08:58;;;;;;;1999.90;999.90;;;34.90;89.80;;;;;;5034149;28;20480;-80
2023/06/04 09:11:28;;;;;;;1999.90;999.90;;;35.20;90.60;;;;;;5034361;28;20057;-80
2023/06/04 09:13:57;;;;;;;1999.90;999.90;;;35.30;89.50;;;;;;5015223;28;20062;-80
2023/06/04 09:16:22;;;;;;;1999.90;999.90;;;35.50;89.50;;;;;;5014785;28;20030;-80
2023/06/04 09:18:48;;;;;;;1999.90;999.90;;;36.10;89.20;;;;;;5014612;28;20503;-80
2023/06/04 09:21:13;;;;;;;1999.90;999.90;;;35.80;86.70;;;;;;5014446;28;20046;-80
2023/06/04 09:23:48;;;;;;;1999.90;999.90;;;35.00;88.50;;;;;;5014626;28;20061;-80
2023/06/04 09:26:15;;;;;;;1999.90;999.90;;;33.60;91.20;;;;;;5014372;28;20026;-80
2023/06/04 09:28:42;;;;;;;1999.90;999.90;;;33.70;91.60;;;;;;5012994;28;20077;-80
2023/06/04 09:31:15;;;;;;;1999.90;999.90;;;34.50;91.20;;;;;;5013162;28;20025;-80
2023/06/04 09:33:49;;;;;;;1999.90;999.90;;;34.80;90.20;;;;;;5014250;28;20026;-80
2023/06/04 09:36:14;;;;;;;1999.90;999.90;;;35.20;90.40;;;;;;5014188;28;20057;-80
2023/06/04 09:38:41;;;;;;;1999.90;999.90;;;35.70;90.00;;;;;;5014162;28;20034;-81
2023/06/04 09:41:13;;;;;;;1999.90;999.90;;;36.40;87.80;;;;;;5013757;28;20029;-81
2023/06/04 09:43:40;;;;;;;1999.90;999.90;;;36.90;87.90;;;;;;5014059;28;20034;-80
2023/06/04 09:46:13;;;;;;;1999.90;999.90;;;36.20;87.30;;;;;;5013794;28;20026;-80
2023/06/04 09:48:43;;;;;;;1999.90;999.90;;;36.00;90.00;;;;;;5013733;28;20370;-81
2023/06/04 09:51:19;;;;;;;1999.90;999.90;;;36.20;87.20;;;;;;5014093;28;20022;-80
2023/06/04 09:53:56;;;;;;;1999.90;999.90;;;36.60;87.50;;;;;;5013378;28;20481;-80
2023/06/04 09:56:21;;;;;;;1999.90;999.90;;;36.40;86.10;;;;;;5014037;28;20034;-81
2023/06/04 09:58:50;;;;;;;1999.90;999.90;;;35.90;87.40;;;;;;5013735;28;20512;-81
2023/06/04 10:01:15;;;;;;;1999.90;999.90;;;36.50;88.00;;;;;;4996063;28;20022;-80
2023/06/04 10:03:46;;;;;;;1999.90;999.90;;;36.10;86.70;;;;;;5027713;28;20415;-80
2023/06/04 10:06:15;;;;;;;1999.90;999.90;;;35.50;87.20;;;;;;5012092;28;20489;-80
2023/06/04 10:08:44;;;;;;;1999.90;999.90;;;35.50;87.30;;;;;;5013744;28;20100;-81
2023/06/04 10:11:13;;;;;;;1999.90;999.90;;;35.50;88.20;;;;;;5013734;28;20014;-80
2023/06/04 10:13:59;;;;;;;1999.90;999.90;;;35.80;87.20;;;;;;5013259;28;20018;-81
2023/06/04 10:16:25;;;;;;;1999.90;999.90;;;36.10;85.50;;;;;;5012340;28;20034;-81
2023/06/04 10:18:54;;;;;;;1999.90;999.90;;;36.30;85.00;;;;;;5013678;28;20056;-80
2023/06/04 10:21:20;;;;;;;1999.90;999.90;;;36.00;85.10;;;;;;5013486;28;20532;-80
2023/06/04 10:23:46;;;;;;;1999.90;999.90;;;36.10;85.10;;;;;;5013446;28;20033;-80
2023/06/04 10:26:16;;;;;;;1999.90;999.90;;;36.20;84.20;;;;;;5012722;28;20040;-81
2023/06/04 10:28:42;;;;;;;1999.90;999.90;;;36.10;84.70;;;;;;5013491;28;20025;-80
2023/06/04 10:31:12;;;;;;;1999.90;999.90;;;35.20;84.40;;;;;;5012054;28;20026;-81
2023/06/04 10:33:39;;;;;;;1999.90;999.90;;;35.40;85.40;;;;;;5013301;28;20053;-81
2023/06/04 10:36:43;;;;;;;1999.90;999.90;;;35.60;85.10;;;;;;5012902;28;20468;-81
2023/06/04 10:39:10;;;;;;;1999.90;999.90;;;35.70;83.40;;;;;;5002363;28;20038;-81
2023/06/04 10:41:35;;;;;;;1999.90;999.90;;;35.90;84.50;;;;;;5013453;28;20397;-81
2023/06/04 10:44:02;;;;;;;1999.90;999.90;;;36.10;82.80;;;;;;5013453;28;20030;-81
2023/06/04 10:46:39;;;;;;;1999.90;999.90;;;36.40;82.30;;;;;;5013148;28;20464;-81
2023/06/04 10:49:05;;;;;;;1999.90;999.90;;;36.50;81.20;;;;;;5013006;28;20418;-81
2023/06/04 10:51:36;;;;;;;1999.90;999.90;;;36.20;82.30;;;;;;5011689;28;20052;-81
2023/06/04 10:54:02;;;;;;;1999.90;999.90;;;36.00;82.50;;;;;;5013403;28;20096;-81
2023/06/04 10:56:31;;;;;;;1999.90;999.90;;;35.90;82.20;;;;;;5012221;28;20030;-81
2023/06/04 10:58:58;;;;;;;1999.90;999.90;;;35.90;83.00;;;;;;5013216;28;20434;-81
2023/06/04 11:01:28;;;;;;;1999.90;999.90;;;35.30;83.60;;;;;;5011628;28;20140;-80
2023/06/04 11:03:55;;;;;;;1999.90;999.90;;;35.40;83.40;;;;;;5028990;28;20115;-81
2023/06/04 11:06:21;;;;;;;1999.90;999.90;;;35.80;81.80;;;;;;5032672;28;20497;-81
2023/06/04 11:08:47;;;;;;;1999.90;999.90;;;35.60;82.50;;;;;;5032787;28;20024;-81
2023/06/04 11:11:16;;;;;;;1999.90;999.90;;;35.70;83.10;;;;;;5032814;28;20021;-81
2023/06/04 11:13:43;;;;;;;1999.90;999.90;;;35.30;82.80;;;;;;5032538;28;20429;-81
2023/06/04 11:16:17;;;;;;;1999.90;999.90;;;36.20;81.20;;;;;;5033148;28;20037;-81
2023/06/04 11:18:43;;;;;;;1999.90;999.90;;;36.00;82.00;;;;;;5032457;28;20070;-81
2023/06/04 11:21:08;;;;;;;1999.90;999.90;;;35.80;83.10;;;;;;5032359;28;20500;-81
2023/06/04 11:23:34;;;;;;;1999.90;999.90;;;35.70;83.30;;;;;;5032445;28;20029;-81
2023/06/04 11:26:01;;;;;;;1999.90;999.90;;;36.10;83.20;;;;;;5035809;28;20049;-81
2023/06/04 11:28:27;;;;;;;1999.90;999.90;;;35.70;81.40;;;;;;5036429;28;20021;-81
2023/06/04 11:31:03;;;;;;;1999.90;999.90;;;35.60;82.60;;;;;;5036712;28;20025;-81
2023/06/04 11:33:30;;;;;;;1999.90;999.90;;;35.80;83.20;;;;;;5036283;28;20017;-81
2023/06/04 11:35:55;;;;;;;1999.90;999.90;;;35.90;82.10;;;;;;5015148;28;20049;-81
2023/06/04 11:38:21;;;;;;;1999.90;999.90;;;35.60;81.50;;;;;;5016311;28;20600;-81
2023/06/04 11:41:00;;;;;;;1999.90;999.90;;;35.60;81.90;;;;;;5016369;28;20503;-81
2023/06/04 11:43:26;;;;;;;1999.90;999.90;;;35.40;82.30;;;;;;5016525;28;20073;-81
2023/06/04 11:45:53;;;;;;;1999.90;999.90;;;35.80;84.30;;;;;;5014863;28;20108;-81
2023/06/04 11:48:19;;;;;;;1999.90;999.90;;;35.60;83.70;;;;;;5016359;28;20493;-81
2023/06/04 11:50:46;;;;;;;1999.90;999.90;;;35.40;83.20;;;;;;5016219;28;20393;-81
2023/06/04 11:53:11;;;;;;;1999.90;999.90;;;35.80;84.10;;;;;;5016026;28;20113;-81
2023/06/04 11:55:39;;;;;;;1999.90;999.90;;;36.00;83.10;;;;;;5015487;28;20112;-81
2023/06/04 11:58:04;;;;;;;1999.90;999.90;;;35.90;81.90;;;;;;5016161;28;20021;-81